Bayou la Batre, Alabama
Current Conditions -  °F | °C
As of 2:53 AM on Saturday 22 Nov 2014 (Local Time) from KBFM Reporting Station
Clear Clear  
Wind Chill: 55°   Ceiling: Unl
Heat Index: 55°   Visibility: 10mi
Dew Point: 45°   Wind: 9mph
Humidity: 69%   Direction: 70°ENE
Pressure: 30.29"   Gusts: NA
Location:  30.42°N, 88.22°W
Report Text: KBFM 220853Z AUTO 07008KT 10SM CLR 13/07 A3029 RMK AO2 SLP257 T01280072 55005
Loading
Personal Weather Stations






























Interactive Weather Map New forecast layout! Learn more

10-Day Weather Forecast

Advertisements
Track Severe Weather on mobile